sensor_id;sensor_type;location;lat;lon;timestamp;pressure;altitude;pressure_sealevel;temperature;humidity
34983;BME280;21187;50.976;13.720;2022-08-19T00:04:01;97474.44;;;24.58;54.30
34983;BME280;21187;50.976;13.720;2022-08-19T00:09:05;97495.19;;;24.35;55.18
34983;BME280;21187;50.976;13.720;2022-08-19T00:14:10;97489.81;;;24.31;55.18
34983;BME280;21187;50.976;13.720;2022-08-19T00:19:13;97492.13;;;24.33;54.73
34983;BME280;21187;50.976;13.720;2022-08-19T00:24:15;97502.88;;;24.31;55.24
34983;BME280;21187;50.976;13.720;2022-08-19T00:29:20;97519.63;;;24.18;56.01
34983;BME280;21187;50.976;13.720;2022-08-19T00:34:22;97515.00;;;24.24;55.71
34983;BME280;21187;50.976;13.720;2022-08-19T00:39:24;97505.16;;;24.23;55.99
34983;BME280;21187;50.976;13.720;2022-08-19T00:44:28;97512.22;;;24.24;56.00
34983;BME280;21187;50.976;13.720;2022-08-19T00:49:35;97509.78;;;24.17;56.35
34983;BME280;21187;50.976;13.720;2022-08-19T00:54:39;97507.28;;;24.09;56.46
34983;BME280;21187;50.976;13.720;2022-08-19T00:59:44;97499.16;;;24.15;56.58
34983;BME280;21187;50.976;13.720;2022-08-19T01:05:06;97504.22;;;24.07;56.72
34983;BME280;21187;50.976;13.720;2022-08-19T01:10:14;97510.66;;;24.14;56.37
34983;BME280;21187;50.976;13.720;2022-08-19T01:15:21;97514.19;;;24.05;57.09
34983;BME280;21187;50.976;13.720;2022-08-19T01:20:24;97524.97;;;23.81;57.98
34983;BME280;21187;50.976;13.720;2022-08-19T01:25:29;97531.78;;;23.89;57.83
34983;BME280;21187;50.976;13.720;2022-08-19T01:30:35;97536.34;;;23.73;58.28
34983;BME280;21187;50.976;13.720;2022-08-19T01:35:37;97530.16;;;23.69;58.68
34983;BME280;21187;50.976;13.720;2022-08-19T01:40:39;97514.63;;;23.63;58.99
34983;BME280;21187;50.976;13.720;2022-08-19T01:45:42;97528.00;;;23.64;58.97
34983;BME280;21187;50.976;13.720;2022-08-19T01:50:44;97528.91;;;23.61;59.19
34983;BME280;21187;50.976;13.720;2022-08-19T01:55:46;97540.72;;;23.62;59.38
34983;BME280;21187;50.976;13.720;2022-08-19T02:00:48;97520.78;;;23.67;59.18
34983;BME280;21187;50.976;13.720;2022-08-19T02:05:55;97492.69;;;23.68;59.07
34983;BME280;21187;50.976;13.720;2022-08-19T02:10:57;97476.75;;;23.82;58.54
34983;BME280;21187;50.976;13.720;2022-08-19T02:15:59;97512.00;;;23.90;58.54
34983;BME280;21187;50.976;13.720;2022-08-19T02:21:04;97541.31;;;23.88;58.58
34983;BME280;21187;50.976;13.720;2022-08-19T02:26:06;97529.97;;;23.95;58.49
34983;BME280;21187;50.976;13.720;2022-08-19T02:31:10;97518.28;;;23.91;58.43
34983;BME280;21187;50.976;13.720;2022-08-19T02:36:14;97511.72;;;24.07;58.02
34983;BME280;21187;50.976;13.720;2022-08-19T02:41:19;97508.53;;;24.08;58.10
34983;BME280;21187;50.976;13.720;2022-08-19T02:46:27;97497.75;;;24.11;58.15
34983;BME280;21187;50.976;13.720;2022-08-19T02:51:32;97503.28;;;24.11;57.89
34983;BME280;21187;50.976;13.720;2022-08-19T02:56:37;97518.03;;;23.98;58.64
34983;BME280;21187;50.976;13.720;2022-08-19T03:01:40;97515.94;;;23.80;59.54
34983;BME280;21187;50.976;13.720;2022-08-19T03:06:45;97511.78;;;23.75;59.64
34983;BME280;21187;50.976;13.720;2022-08-19T03:11:47;97516.09;;;23.86;59.22
34983;BME280;21187;50.976;13.720;2022-08-19T03:16:53;97521.59;;;23.76;59.76
34983;BME280;21187;50.976;13.720;2022-08-19T03:21:55;97530.38;;;23.84;59.56
34983;BME280;21187;50.976;13.720;2022-08-19T03:26:57;97526.91;;;23.93;59.23
34983;BME280;21187;50.976;13.720;2022-08-19T03:32:04;97525.84;;;23.90;59.53
34983;BME280;21187;50.976;13.720;2022-08-19T03:37:10;97533.28;;;23.81;59.81
34983;BME280;21187;50.976;13.720;2022-08-19T03:42:13;97545.38;;;23.74;60.08
34983;BME280;21187;50.976;13.720;2022-08-19T03:47:36;97547.09;;;23.81;59.90
34983;BME280;21187;50.976;13.720;2022-08-19T03:52:39;97541.56;;;23.81;59.73
34983;BME280;21187;50.976;13.720;2022-08-19T03:57:46;97543.75;;;23.86;59.63
34983;BME280;21187;50.976;13.720;2022-08-19T04:02:49;97536.09;;;23.90;59.47
34983;BME280;21187;50.976;13.720;2022-08-19T04:08:01;97536.97;;;23.77;60.10
34983;BME280;21187;50.976;13.720;2022-08-19T04:13:04;97531.56;;;23.74;60.21
34983;BME280;21187;50.976;13.720;2022-08-19T04:18:09;97516.81;;;23.68;60.18
34983;BME280;21187;50.976;13.720;2022-08-19T04:23:12;97516.97;;;23.73;60.10
34983;BME280;21187;50.976;13.720;2022-08-19T04:28:14;97530.13;;;23.91;59.62
34983;BME280;21187;50.976;13.720;2022-08-19T04:33:19;97526.13;;;23.92;59.45
34983;BME280;21187;50.976;13.720;2022-08-19T04:38:29;97522.94;;;23.94;59.59
34983;BME280;21187;50.976;13.720;2022-08-19T04:43:31;97541.53;;;24.03;59.15
34983;BME280;21187;50.976;13.720;2022-08-19T04:48:35;97537.06;;;23.96;59.39
34983;BME280;21187;50.976;13.720;2022-08-19T04:53:43;97546.50;;;23.86;59.65
34983;BME280;21187;50.976;13.720;2022-08-19T04:58:46;97542.00;;;23.70;60.41
34983;BME280;21187;50.976;13.720;2022-08-19T05:03:48;97530.81;;;23.73;60.10
34983;BME280;21187;50.976;13.720;2022-08-19T05:08:50;97545.38;;;23.74;60.06
34983;BME280;21187;50.976;13.720;2022-08-19T05:13:53;97549.28;;;23.86;59.64
34983;BME280;21187;50.976;13.720;2022-08-19T05:18:56;97561.16;;;23.64;60.39
34983;BME280;21187;50.976;13.720;2022-08-19T05:24:17;97582.91;;;23.53;60.88
34983;BME280;21187;50.976;13.720;2022-08-19T05:29:20;97586.25;;;23.48;61.00
34983;BME280;21187;50.976;13.720;2022-08-19T05:34:23;97594.22;;;23.46;61.09
34983;BME280;21187;50.976;13.720;2022-08-19T05:39:32;97603.63;;;23.48;61.18
34983;BME280;21187;50.976;13.720;2022-08-19T05:44:36;97605.28;;;23.46;61.17
34983;BME280;21187;50.976;13.720;2022-08-19T05:49:39;97628.59;;;23.45;61.18
34983;BME280;21187;50.976;13.720;2022-08-19T05:54:41;97629.06;;;23.43;61.20
34983;BME280;21187;50.976;13.720;2022-08-19T05:59:44;97649.09;;;23.34;61.61
34983;BME280;21187;50.976;13.720;2022-08-19T06:04:59;97673.00;;;23.28;61.67
34983;BME280;21187;50.976;13.720;2022-08-19T06:10:02;97673.06;;;23.15;62.36
34983;BME280;21187;50.976;13.720;2022-08-19T06:15:10;97691.06;;;23.07;62.56
34983;BME280;21187;50.976;13.720;2022-08-19T06:20:14;97698.91;;;23.08;62.55
34983;BME280;21187;50.976;13.720;2022-08-19T06:25:16;97699.97;;;23.24;61.94
34983;BME280;21187;50.976;13.720;2022-08-19T06:30:18;97708.06;;;23.18;62.07
34983;BME280;21187;50.976;13.720;2022-08-19T06:35:20;97708.50;;;23.17;62.38
34983;BME280;21187;50.976;13.720;2022-08-19T06:40:22;97717.13;;;23.19;62.09
34983;BME280;21187;50.976;13.720;2022-08-19T06:45:25;97731.78;;;23.29;61.93
34983;BME280;21187;50.976;13.720;2022-08-19T06:50:36;97734.66;;;23.25;62.08
34983;BME280;21187;50.976;13.720;2022-08-19T06:55:40;97755.56;;;23.26;62.07
34983;BME280;21187;50.976;13.720;2022-08-19T07:00:42;97745.59;;;23.29;62.01
34983;BME280;21187;50.976;13.720;2022-08-19T07:05:44;97737.78;;;23.27;62.08
34983;BME280;21187;50.976;13.720;2022-08-19T07:10:46;97723.13;;;23.39;61.93
34983;BME280;21187;50.976;13.720;2022-08-19T07:15:49;97734.19;;;23.39;61.94
34983;BME280;21187;50.976;13.720;2022-08-19T07:21:03;97745.25;;;23.39;62.03
34983;BME280;21187;50.976;13.720;2022-08-19T07:26:14;97752.78;;;23.26;62.25
34983;BME280;21187;50.976;13.720;2022-08-19T07:31:20;97752.25;;;23.18;62.94
34983;BME280;21187;50.976;13.720;2022-08-19T07:36:26;97750.28;;;23.19;62.76
34983;BME280;21187;50.976;13.720;2022-08-19T07:41:35;97757.09;;;23.27;62.93
34983;BME280;21187;50.976;13.720;2022-08-19T07:46:41;97745.50;;;23.32;63.03
34983;BME280;21187;50.976;13.720;2022-08-19T07:51:55;97752.97;;;23.45;62.38
34983;BME280;21187;50.976;13.720;2022-08-19T07:56:58;97752.19;;;23.44;62.42
34983;BME280;21187;50.976;13.720;2022-08-19T08:02:00;97756.94;;;23.43;62.50
34983;BME280;21187;50.976;13.720;2022-08-19T08:07:05;97762.72;;;23.36;63.03
34983;BME280;21187;50.976;13.720;2022-08-19T08:12:36;97767.59;;;23.32;63.27
34983;BME280;21187;50.976;13.720;2022-08-19T08:17:40;97766.03;;;23.31;63.29
34983;BME280;21187;50.976;13.720;2022-08-19T08:22:51;97778.66;;;23.32;63.40
34983;BME280;21187;50.976;13.720;2022-08-19T08:28:12;97791.47;;;23.26;63.63
34983;BME280;21187;50.976;13.720;2022-08-19T08:33:20;97787.50;;;23.27;63.65
34983;BME280;21187;50.976;13.720;2022-08-19T08:38:36;97786.94;;;23.32;63.61
34983;BME280;21187;50.976;13.720;2022-08-19T08:43:44;97796.97;;;23.39;63.69
34983;BME280;21187;50.976;13.720;2022-08-19T08:54:04;97794.56;;;23.63;63.00
34983;BME280;21187;50.976;13.720;2022-08-19T08:59:24;97796.84;;;23.77;62.54
34983;BME280;21187;50.976;13.720;2022-08-19T09:04:28;97798.41;;;23.79;62.57
34983;BME280;21187;50.976;13.720;2022-08-19T09:09:41;97807.44;;;23.92;62.00
34983;BME280;21187;50.976;13.720;2022-08-19T09:14:46;97811.31;;;23.82;62.26
34983;BME280;21187;50.976;13.720;2022-08-19T09:19:54;97803.03;;;23.82;62.41
34983;BME280;21187;50.976;13.720;2022-08-19T09:24:56;97800.06;;;23.76;62.59
34983;BME280;21187;50.976;13.720;2022-08-19T09:29:58;97786.78;;;23.84;62.31
34983;BME280;21187;50.976;13.720;2022-08-19T09:35:02;97786.44;;;23.82;62.43
34983;BME280;21187;50.976;13.720;2022-08-19T09:40:10;97777.94;;;23.76;62.92
34983;BME280;21187;50.976;13.720;2022-08-19T09:45:14;97760.59;;;23.75;63.12
34983;BME280;21187;50.976;13.720;2022-08-19T09:50:17;97781.97;;;23.97;62.95
34983;BME280;21187;50.976;13.720;2022-08-19T09:55:19;97787.63;;;24.16;62.86
34983;BME280;21187;50.976;13.720;2022-08-19T10:00:24;97787.38;;;24.23;62.92
34983;BME280;21187;50.976;13.720;2022-08-19T10:05:27;97774.25;;;24.36;62.71
34983;BME280;21187;50.976;13.720;2022-08-19T10:10:49;97776.66;;;24.56;61.73
34983;BME280;21187;50.976;13.720;2022-08-19T10:15:53;97795.91;;;24.60;61.32
34983;BME280;21187;50.976;13.720;2022-08-19T10:21:08;97798.00;;;24.56;61.55
34983;BME280;21187;50.976;13.720;2022-08-19T10:26:17;97798.41;;;24.67;61.48
34983;BME280;21187;50.976;13.720;2022-08-19T10:31:29;97809.03;;;24.69;60.94
34983;BME280;21187;50.976;13.720;2022-08-19T10:36:51;97801.28;;;24.95;61.20
34983;BME280;21187;50.976;13.720;2022-08-19T10:41:57;97816.91;;;25.20;59.95
34983;BME280;21187;50.976;13.720;2022-08-19T10:46:59;97822.75;;;25.13;59.84
34983;BME280;21187;50.976;13.720;2022-08-19T10:52:01;97823.19;;;25.02;60.10
34983;BME280;21187;50.976;13.720;2022-08-19T10:57:33;97829.47;;;25.34;59.67
34983;BME280;21187;50.976;13.720;2022-08-19T11:02:55;97829.47;;;25.44;58.95
34983;BME280;21187;50.976;13.720;2022-08-19T11:07:57;97844.91;;;25.63;58.40
34983;BME280;21187;50.976;13.720;2022-08-19T11:13:03;97841.34;;;25.63;57.85
34983;BME280;21187;50.976;13.720;2022-08-19T11:18:06;97855.66;;;25.42;58.06
34983;BME280;21187;50.976;13.720;2022-08-19T11:23:14;97845.19;;;25.47;57.84
34983;BME280;21187;50.976;13.720;2022-08-19T11:28:15;97850.13;;;25.61;57.88
34983;BME280;21187;50.976;13.720;2022-08-19T11:33:17;97855.69;;;25.70;57.02
34983;BME280;21187;50.976;13.720;2022-08-19T11:38:20;97850.47;;;25.82;56.87
34983;BME280;21187;50.976;13.720;2022-08-19T11:43:22;97837.84;;;25.90;56.73
34983;BME280;21187;50.976;13.720;2022-08-19T11:48:25;97843.38;;;25.90;56.20
34983;BME280;21187;50.976;13.720;2022-08-19T11:53:29;97847.53;;;25.76;56.68
34983;BME280;21187;50.976;13.720;2022-08-19T11:58:31;97852.63;;;25.78;56.46
34983;BME280;21187;50.976;13.720;2022-08-19T12:03:34;97842.81;;;26.04;56.05
34983;BME280;21187;50.976;13.720;2022-08-19T12:08:37;97868.38;;;25.99;55.71
34983;BME280;21187;50.976;13.720;2022-08-19T12:13:41;97863.13;;;25.92;56.03
34983;BME280;21187;50.976;13.720;2022-08-19T12:18:47;97860.66;;;25.85;56.21
34983;BME280;21187;50.976;13.720;2022-08-19T12:23:50;97860.78;;;25.90;55.72
34983;BME280;21187;50.976;13.720;2022-08-19T12:28:56;97876.06;;;25.86;55.83
34983;BME280;21187;50.976;13.720;2022-08-19T12:34:00;97882.81;;;25.75;55.94
34983;BME280;21187;50.976;13.720;2022-08-19T12:39:03;97881.88;;;25.69;56.16
34983;BME280;21187;50.976;13.720;2022-08-19T12:44:06;97869.88;;;25.63;55.99
34983;BME280;21187;50.976;13.720;2022-08-19T12:49:10;97890.78;;;25.55;56.15
34983;BME280;21187;50.976;13.720;2022-08-19T12:54:32;97879.56;;;25.58;55.92
34983;BME280;21187;50.976;13.720;2022-08-19T12:59:35;97880.03;;;25.66;55.70
34983;BME280;21187;50.976;13.720;2022-08-19T13:04:38;97885.25;;;25.64;55.51
34983;BME280;21187;50.976;13.720;2022-08-19T13:09:42;97875.72;;;25.65;55.67
34983;BME280;21187;50.976;13.720;2022-08-19T13:14:44;97874.50;;;25.66;55.57
34983;BME280;21187;50.976;13.720;2022-08-19T13:19:51;97883.41;;;25.61;55.71
34983;BME280;21187;50.976;13.720;2022-08-19T13:24:53;97875.72;;;25.65;55.42
34983;BME280;21187;50.976;13.720;2022-08-19T13:29:55;97878.34;;;25.69;55.28
34983;BME280;21187;50.976;13.720;2022-08-19T13:35:17;97874.31;;;25.51;55.78
34983;BME280;21187;50.976;13.720;2022-08-19T13:40:22;97864.25;;;25.35;55.71
34983;BME280;21187;50.976;13.720;2022-08-19T13:45:26;97866.88;;;25.39;55.64
34983;BME280;21187;50.976;13.720;2022-08-19T13:50:30;97857.34;;;25.49;55.80
34983;BME280;21187;50.976;13.720;2022-08-19T13:55:39;97861.94;;;25.43;55.76
34983;BME280;21187;50.976;13.720;2022-08-19T14:00:44;97872.00;;;25.09;56.22
34983;BME280;21187;50.976;13.720;2022-08-19T14:05:47;97885.84;;;24.78;57.08
34983;BME280;21187;50.976;13.720;2022-08-19T14:10:49;97890.34;;;24.62;57.81
34983;BME280;21187;50.976;13.720;2022-08-19T14:15:51;97880.34;;;24.42;58.14
34983;BME280;21187;50.976;13.720;2022-08-19T14:20:53;97892.28;;;24.30;58.51
34983;BME280;21187;50.976;13.720;2022-08-19T14:26:10;97879.00;;;24.25;58.76
34983;BME280;21187;50.976;13.720;2022-08-19T14:31:14;97871.03;;;24.27;59.05
34983;BME280;21187;50.976;13.720;2022-08-19T14:36:20;97885.31;;;24.48;58.79
34983;BME280;21187;50.976;13.720;2022-08-19T14:41:23;97881.25;;;24.62;58.17
34983;BME280;21187;50.976;13.720;2022-08-19T14:46:27;97893.25;;;24.81;58.04
34983;BME280;21187;50.976;13.720;2022-08-19T14:51:31;97885.03;;;24.99;57.07
34983;BME280;21187;50.976;13.720;2022-08-19T14:56:33;97895.56;;;25.14;57.03
34983;BME280;21187;50.976;13.720;2022-08-19T15:01:35;97881.72;;;25.23;56.81
34983;BME280;21187;50.976;13.720;2022-08-19T15:06:37;97886.06;;;25.24;56.33
34983;BME280;21187;50.976;13.720;2022-08-19T15:11:39;97888.19;;;25.20;56.12
34983;BME280;21187;50.976;13.720;2022-08-19T15:16:41;97899.28;;;25.20;56.09
34983;BME280;21187;50.976;13.720;2022-08-19T15:21:43;97902.00;;;25.11;56.19
34983;BME280;21187;50.976;13.720;2022-08-19T15:26:45;97902.00;;;25.11;56.18
34983;BME280;21187;50.976;13.720;2022-08-19T15:31:47;97893.97;;;25.03;56.62
34983;BME280;21187;50.976;13.720;2022-08-19T15:36:50;97878.72;;;24.99;56.56
34983;BME280;21187;50.976;13.720;2022-08-19T15:41:52;97871.75;;;24.94;56.36
34983;BME280;21187;50.976;13.720;2022-08-19T15:46:54;97861.31;;;24.98;56.67
34983;BME280;21187;50.976;13.720;2022-08-19T15:51:56;97862.16;;;25.17;56.31
34983;BME280;21187;50.976;13.720;2022-08-19T15:57:00;97849.09;;;25.27;55.85
34983;BME280;21187;50.976;13.720;2022-08-19T16:02:24;97843.25;;;25.25;56.04
34983;BME280;21187;50.976;13.720;2022-08-19T16:07:46;97865.25;;;25.19;55.75
34983;BME280;21187;50.976;13.720;2022-08-19T16:12:48;97867.22;;;25.09;55.73
34983;BME280;21187;50.976;13.720;2022-08-19T16:17:50;97870.13;;;25.06;55.96
34983;BME280;21187;50.976;13.720;2022-08-19T16:22:58;97852.72;;;25.05;55.67
34983;BME280;21187;50.976;13.720;2022-08-19T16:28:00;97857.59;;;24.92;55.66
34983;BME280;21187;50.976;13.720;2022-08-19T16:33:09;97862.50;;;24.88;55.71
34983;BME280;21187;50.976;13.720;2022-08-19T16:38:11;97844.22;;;24.90;55.65
34983;BME280;21187;50.976;13.720;2022-08-19T16:43:13;97826.84;;;24.99;55.79
34983;BME280;21187;50.976;13.720;2022-08-19T16:48:15;97827.78;;;24.96;55.52
34983;BME280;21187;50.976;13.720;2022-08-19T16:53:19;97831.50;;;25.02;55.59
34983;BME280;21187;50.976;13.720;2022-08-19T16:58:22;97826.53;;;24.97;55.54
34983;BME280;21187;50.976;13.720;2022-08-19T17:03:30;97825.63;;;25.00;55.28
34983;BME280;21187;50.976;13.720;2022-08-19T17:08:37;97841.31;;;25.03;55.06
34983;BME280;21187;50.976;13.720;2022-08-19T17:13:39;97865.31;;;24.97;55.02
34983;BME280;21187;50.976;13.720;2022-08-19T17:18:44;97871.31;;;24.64;55.74
34983;BME280;21187;50.976;13.720;2022-08-19T17:23:46;97860.16;;;24.55;55.96
34983;BME280;21187;50.976;13.720;2022-08-19T17:28:50;97864.97;;;24.64;55.71
34983;BME280;21187;50.976;13.720;2022-08-19T17:33:53;97860.47;;;24.57;55.91
34983;BME280;21187;50.976;13.720;2022-08-19T17:38:58;97860.47;;;24.57;55.94
34983;BME280;21187;50.976;13.720;2022-08-19T17:44:01;97855.72;;;24.57;55.85
34983;BME280;21187;50.976;13.720;2022-08-19T17:49:04;97878.56;;;24.49;55.95
34983;BME280;21187;50.976;13.720;2022-08-19T17:54:10;97898.22;;;24.41;56.02
34983;BME280;21187;50.976;13.720;2022-08-19T17:59:13;97905.25;;;24.42;56.12
34983;BME280;21187;50.976;13.720;2022-08-19T18:04:16;97903.13;;;24.47;55.82
34983;BME280;21187;50.976;13.720;2022-08-19T18:09:28;97927.47;;;24.52;55.79
34983;BME280;21187;50.976;13.720;2022-08-19T18:14:43;97948.97;;;24.48;56.05
34983;BME280;21187;50.976;13.720;2022-08-19T18:19:46;97956.63;;;24.43;56.08
34983;BME280;21187;50.976;13.720;2022-08-19T18:24:48;97977.50;;;24.35;56.54
34983;BME280;21187;50.976;13.720;2022-08-19T18:29:51;97976.19;;;24.27;56.59
34983;BME280;21187;50.976;13.720;2022-08-19T18:34:53;97984.69;;;24.33;56.63
34983;BME280;21187;50.976;13.720;2022-08-19T18:39:56;97966.66;;;24.28;56.68
34983;BME280;21187;50.976;13.720;2022-08-19T18:45:18;97955.00;;;24.33;56.52
34983;BME280;21187;50.976;13.720;2022-08-19T18:50:52;97941.16;;;24.33;56.48
34983;BME280;21187;50.976;13.720;2022-08-19T18:55:55;97955.00;;;24.33;56.35
34983;BME280;21187;50.976;13.720;2022-08-19T19:00:59;97952.25;;;24.33;56.33
34983;BME280;21187;50.976;13.720;2022-08-19T19:06:02;97972.72;;;24.36;56.50
34983;BME280;21187;50.976;13.720;2022-08-19T19:11:07;97949.38;;;24.37;56.19
34983;BME280;21187;50.976;13.720;2022-08-19T19:16:09;97967.56;;;24.25;56.86
34983;BME280;21187;50.976;13.720;2022-08-19T19:21:12;97956.66;;;24.08;57.15
34983;BME280;21187;50.976;13.720;2022-08-19T19:26:14;97956.97;;;24.11;56.71
34983;BME280;21187;50.976;13.720;2022-08-19T19:31:20;97944.81;;;23.95;57.22
34983;BME280;21187;50.976;13.720;2022-08-19T19:36:27;97948.16;;;23.90;57.19
34983;BME280;21187;50.976;13.720;2022-08-19T19:41:29;97965.84;;;23.80;57.39
34983;BME280;21187;50.976;13.720;2022-08-19T19:46:34;97981.09;;;23.71;57.57
34983;BME280;21187;50.976;13.720;2022-08-19T19:51:40;97948.81;;;23.81;57.17
34983;BME280;21187;50.976;13.720;2022-08-19T19:56:45;97926.91;;;23.87;57.15
34983;BME280;21187;50.976;13.720;2022-08-19T20:01:49;97944.59;;;23.76;57.26
34983;BME280;21187;50.976;13.720;2022-08-19T20:06:55;97933.91;;;23.66;57.45
34983;BME280;21187;50.976;13.720;2022-08-19T20:11:57;97948.16;;;23.64;57.25
34983;BME280;21187;50.976;13.720;2022-08-19T20:17:00;97991.94;;;23.53;57.91
34983;BME280;21187;50.976;13.720;2022-08-19T20:22:04;97980.34;;;23.45;57.97
34983;BME280;21187;50.976;13.720;2022-08-19T20:27:06;97982.25;;;23.61;57.56
34983;BME280;21187;50.976;13.720;2022-08-19T20:32:11;97985.31;;;23.63;57.31
34983;BME280;21187;50.976;13.720;2022-08-19T20:37:13;97978.47;;;23.55;57.58
34983;BME280;21187;50.976;13.720;2022-08-19T20:42:15;97981.03;;;23.49;57.54
34983;BME280;21187;50.976;13.720;2022-08-19T20:47:17;97985.09;;;23.57;57.40
34983;BME280;21187;50.976;13.720;2022-08-19T20:52:19;97987.97;;;23.54;57.36
34983;BME280;21187;50.976;13.720;2022-08-19T20:57:21;97971.75;;;23.56;57.42
34983;BME280;21187;50.976;13.720;2022-08-19T21:02:23;97963.09;;;23.67;57.18
34983;BME280;21187;50.976;13.720;2022-08-19T21:07:25;97972.50;;;23.69;56.99
34983;BME280;21187;50.976;13.720;2022-08-19T21:12:40;97985.75;;;23.62;57.15
34983;BME280;21187;50.976;13.720;2022-08-19T21:17:42;97978.69;;;23.48;57.29
34983;BME280;21187;50.976;13.720;2022-08-19T21:22:44;97983.53;;;23.43;57.68
34983;BME280;21187;50.976;13.720;2022-08-19T21:27:46;97985.44;;;23.47;57.25
34983;BME280;21187;50.976;13.720;2022-08-19T21:32:48;97984.31;;;23.57;57.20
34983;BME280;21187;50.976;13.720;2022-08-19T21:37:53;97978.59;;;23.64;56.94
34983;BME280;21187;50.976;13.720;2022-08-19T21:42:56;97988.44;;;23.65;56.90
34983;BME280;21187;50.976;13.720;2022-08-19T21:47:58;97986.31;;;23.56;57.12
34983;BME280;21187;50.976;13.720;2022-08-19T21:53:00;97967.63;;;23.48;57.42
34983;BME280;21187;50.976;13.720;2022-08-19T21:58:02;97969.53;;;23.51;57.32
34983;BME280;21187;50.976;13.720;2022-08-19T22:03:05;97964.09;;;23.47;57.37
34983;BME280;21187;50.976;13.720;2022-08-19T22:08:09;97956.47;;;23.38;57.60
34983;BME280;21187;50.976;13.720;2022-08-19T22:13:11;97969.28;;;23.32;57.72
34983;BME280;21187;50.976;13.720;2022-08-19T22:18:13;97983.31;;;23.38;57.66
34983;BME280;21187;50.976;13.720;2022-08-19T22:23:19;97987.31;;;23.50;57.32
34983;BME280;21187;50.976;13.720;2022-08-19T22:28:21;97980.78;;;23.56;57.25
34983;BME280;21187;50.976;13.720;2022-08-19T22:33:29;97964.00;;;23.51;57.45
34983;BME280;21187;50.976;13.720;2022-08-19T22:38:33;97967.31;;;23.58;57.29
34983;BME280;21187;50.976;13.720;2022-08-19T22:43:36;97971.84;;;23.65;57.27
34983;BME280;21187;50.976;13.720;2022-08-19T22:48:38;97986.88;;;23.64;57.18
34983;BME280;21187;50.976;13.720;2022-08-19T22:53:42;97987.44;;;23.59;57.17
34983;BME280;21187;50.976;13.720;2022-08-19T22:58:46;97976.38;;;23.59;57.23
34983;BME280;21187;50.976;13.720;2022-08-19T23:03:51;97973.94;;;23.61;57.37
34983;BME280;21187;50.976;13.720;2022-08-19T23:08:53;97978.59;;;23.64;57.09
34983;BME280;21187;50.976;13.720;2022-08-19T23:13:55;97974.91;;;23.54;57.37
34983;BME280;21187;50.976;13.720;2022-08-19T23:18:57;97963.75;;;23.45;57.53
34983;BME280;21187;50.976;13.720;2022-08-19T23:23:59;97963.78;;;23.32;58.03
34983;BME280;21187;50.976;13.720;2022-08-19T23:29:01;97963.09;;;23.28;58.24
34983;BME280;21187;50.976;13.720;2022-08-19T23:34:22;97964.06;;;23.21;58.26
34983;BME280;21187;50.976;13.720;2022-08-19T23:39:24;97966.72;;;23.25;58.44
34983;BME280;21187;50.976;13.720;2022-08-19T23:44:27;97956.03;;;23.27;58.19
34983;BME280;21187;50.976;13.720;2022-08-19T23:49:29;97966.72;;;23.25;58.36
34983;BME280;21187;50.976;13.720;2022-08-19T23:54:31;97971.44;;;23.12;58.68
34983;BME280;21187;50.976;13.720;2022-08-19T23:59:43;97955.38;;;22.93;59.33
